createdAt,value
2017-12-25T00:00:40.154Z,12.57
2017-12-25T00:03:07.463Z,13.30
2017-12-25T00:05:35.143Z,11.93
2017-12-25T00:08:02.854Z,10.57
2017-12-25T00:10:30.175Z,12.63
2017-12-25T00:12:57.826Z,12.43
2017-12-25T00:15:25.559Z,14.33
2017-12-25T00:17:53.289Z,14.33
2017-12-25T00:20:20.606Z,11.43
2017-12-25T00:22:47.947Z,11.30
2017-12-25T00:25:15.262Z,13.73
2017-12-25T00:27:42.570Z,11.03
2017-12-25T00:30:10.395Z,13.97
2017-12-25T00:32:37.703Z,10.97
2017-12-25T00:35:05.259Z,11.60
2017-12-25T00:37:32.926Z,14.60
2017-12-25T00:40:00.609Z,12.23
2017-12-25T00:42:27.951Z,11.17
2017-12-25T00:44:55.678Z,13.37
2017-12-25T00:47:23.322Z,12.70
2017-12-25T00:49:51.038Z,11.50
2017-12-25T00:52:18.349Z,11.97
2017-12-25T00:54:46.021Z,11.90
2017-12-25T00:57:13.398Z,12.87
2017-12-25T00:59:41.002Z,11.23
2017-12-25T01:02:08.694Z,11.87
2017-12-25T01:04:36.054Z,11.50
2017-12-25T01:07:03.371Z,10.83
2017-12-25T01:09:31.096Z,11.67
2017-12-25T01:11:58.790Z,9.63
2017-12-25T01:14:26.095Z,9.80
2017-12-25T01:16:53.431Z,10.63
2017-12-25T01:19:21.130Z,12.20
2017-12-25T01:21:48.848Z,11.00
2017-12-25T01:24:16.722Z,10.10
2017-12-25T01:26:44.417Z,9.67
2017-12-25T01:29:12.071Z,11.60
2017-12-25T01:31:39.810Z,9.17
2017-12-25T01:34:07.527Z,10.00
2017-12-25T01:36:34.902Z,9.97
2017-12-25T01:39:02.711Z,10.00
2017-12-25T01:41:30.234Z,10.60
2017-12-25T01:43:57.985Z,11.80
2017-12-25T01:46:25.291Z,9.87
2017-12-25T01:48:52.605Z,9.63
2017-12-25T01:51:20.167Z,9.50
2017-12-25T01:53:47.855Z,10.80
2017-12-25T01:56:21.042Z,10.50
2017-12-25T01:58:53.398Z,8.63
2017-12-25T02:01:21.543Z,10.13
2017-12-25T02:03:48.846Z,8.60
2017-12-25T02:06:22.618Z,9.90
2017-12-25T02:08:50.067Z,8.57
2017-12-25T02:11:17.757Z,10.20
2017-12-25T02:13:45.498Z,10.07
2017-12-25T02:16:12.810Z,9.50
2017-12-25T02:18:40.482Z,8.23
2017-12-25T02:21:08.099Z,9.13
2017-12-25T02:23:35.823Z,8.03
2017-12-25T02:26:03.196Z,8.07
2017-12-25T02:28:30.618Z,6.40
2017-12-25T02:30:58.262Z,8.27
2017-12-25T02:33:25.914Z,6.40
2017-12-25T02:35:53.284Z,10.03
2017-12-25T02:38:20.727Z,5.70
2017-12-25T02:40:48.086Z,6.73
2017-12-25T02:43:15.727Z,6.57
2017-12-25T02:45:43.029Z,6.43
2017-12-25T02:48:10.729Z,6.80
2017-12-25T02:50:38.563Z,7.70
2017-12-25T02:53:05.922Z,7.90
2017-12-25T02:55:33.262Z,6.70
2017-12-25T02:58:00.887Z,7.83
2017-12-25T03:00:28.250Z,7.10
2017-12-25T03:02:55.561Z,7.00
2017-12-25T03:05:23.079Z,9.30
2017-12-25T03:07:50.762Z,8.17
2017-12-25T03:10:18.103Z,7.27
2017-12-25T03:12:45.728Z,6.67
2017-12-25T03:15:13.073Z,6.57
2017-12-25T03:17:40.773Z,6.23
2017-12-25T03:20:08.430Z,8.03
2017-12-25T03:22:35.747Z,7.97
2017-12-25T03:25:03.209Z,7.83
2017-12-25T03:27:30.918Z,8.83
2017-12-25T03:29:59.142Z,7.10
2017-12-25T03:32:26.870Z,7.47
2017-12-25T03:34:54.570Z,11.10
2017-12-25T03:37:22.026Z,7.83
2017-12-25T03:39:49.758Z,5.90
2017-12-25T03:42:17.066Z,6.33
2017-12-25T03:44:44.964Z,5.27
2017-12-25T03:47:12.646Z,5.13
2017-12-25T03:49:39.957Z,8.20
2017-12-25T03:52:07.591Z,4.40
2017-12-25T03:54:35.017Z,6.97
2017-12-25T03:57:02.723Z,4.90
2017-12-25T03:59:30.101Z,4.30
2017-12-25T04:01:57.614Z,5.20
2017-12-25T04:04:24.935Z,6.67
2017-12-25T04:06:52.278Z,7.00
2017-12-25T04:09:19.898Z,5.23
2017-12-25T04:11:47.211Z,4.77
2017-12-25T04:14:14.966Z,4.97
2017-12-25T04:16:42.269Z,5.80
2017-12-25T04:19:09.638Z,5.77
2017-12-25T04:21:37.338Z,4.27
2017-12-25T04:24:04.647Z,6.10
2017-12-25T04:26:32.006Z,6.10
2017-12-25T04:28:59.709Z,6.93
2017-12-25T04:31:27.430Z,6.40
2017-12-25T04:33:54.843Z,10.17
2017-12-25T04:36:22.237Z,8.63
2017-12-25T04:38:50.149Z,5.43
2017-12-25T04:41:17.455Z,5.30
2017-12-25T04:43:44.777Z,8.10
2017-12-25T04:46:12.508Z,6.97
2017-12-25T04:48:39.832Z,9.30
2017-12-25T04:51:07.191Z,8.77
2017-12-25T04:53:34.512Z,9.43
2017-12-25T04:56:02.282Z,9.80
2017-12-25T04:58:29.695Z,11.33
2017-12-25T05:00:57.326Z,10.33
2017-12-25T05:03:25.054Z,11.10
2017-12-25T05:05:52.740Z,12.57
2017-12-25T05:08:20.066Z,11.83
2017-12-25T05:10:47.818Z,12.30
2017-12-25T05:13:15.185Z,13.07
2017-12-25T05:15:42.882Z,14.67
2017-12-25T05:18:10.226Z,12.20
2017-12-25T05:20:37.582Z,11.50
2017-12-25T05:23:04.902Z,14.30
2017-12-25T05:25:32.214Z,13.30
2017-12-25T05:27:59.935Z,12.20
2017-12-25T05:30:27.252Z,15.27
2017-12-25T05:32:54.916Z,11.00
2017-12-25T05:35:22.530Z,12.27
2017-12-25T05:37:49.841Z,13.60
2017-12-25T05:40:17.571Z,14.63
2017-12-25T05:42:45.198Z,13.93
2017-12-25T05:45:12.935Z,10.60
2017-12-25T05:47:40.250Z,12.10
2017-12-25T05:50:07.919Z,19.60
2017-12-25T05:52:35.552Z,13.10
2017-12-25T05:55:03.262Z,12.57
2017-12-25T05:57:30.573Z,13.03
2017-12-25T05:59:58.222Z,13.47
2017-12-25T06:02:25.583Z,12.63
2017-12-25T06:04:52.898Z,10.93
2017-12-25T06:07:20.631Z,11.93
2017-12-25T06:09:48.263Z,11.47
2017-12-25T06:12:15.623Z,10.40
2017-12-25T06:14:43.057Z,10.80
2017-12-25T06:17:10.438Z,10.60
2017-12-25T06:19:38.158Z,9.43
2017-12-25T06:22:05.842Z,9.43
2017-12-25T06:24:33.526Z,9.20
2017-12-25T06:27:00.886Z,9.77
2017-12-25T06:29:28.425Z,8.40
2017-12-25T06:31:55.727Z,7.80
2017-12-25T06:34:23.390Z,8.17
2017-12-25T06:36:50.758Z,10.80
2017-12-25T06:39:18.474Z,7.47
2017-12-25T06:41:46.106Z,8.23
2017-12-25T06:44:13.817Z,6.40
2017-12-25T06:46:41.163Z,8.43
2017-12-25T06:49:08.818Z,6.80
2017-12-25T06:51:36.459Z,7.00
2017-12-25T06:54:03.847Z,7.93
2017-12-25T06:56:31.470Z,8.50
2017-12-25T06:58:59.189Z,6.20
2017-12-25T07:01:26.903Z,6.73
2017-12-25T07:03:54.267Z,9.17
2017-12-25T07:06:21.955Z,7.23
2017-12-25T07:08:49.585Z,6.50
2017-12-25T07:11:16.936Z,8.20
2017-12-25T07:13:44.607Z,8.20
2017-12-25T07:16:12.290Z,5.93
2017-12-25T07:18:39.639Z,7.60
2017-12-25T07:21:08.162Z,6.80
2017-12-25T07:23:35.903Z,5.93
2017-12-25T07:26:03.287Z,6.30
2017-12-25T07:28:30.668Z,4.97
2017-12-25T07:30:58.420Z,5.57
2017-12-25T07:33:26.186Z,4.03
2017-12-25T07:35:53.922Z,5.00
2017-12-25T07:38:21.267Z,3.97
2017-12-25T07:40:48.668Z,4.00
2017-12-25T07:43:16.363Z,5.60
2017-12-25T07:45:43.798Z,3.57
2017-12-25T07:48:11.141Z,4.27
2017-12-25T07:50:38.506Z,3.60
2017-12-25T07:53:05.887Z,2.80
2017-12-25T07:55:33.541Z,2.67
2017-12-25T07:58:01.319Z,4.47
2017-12-25T08:00:28.648Z,2.50
2017-12-25T08:02:55.991Z,2.63
2017-12-25T08:05:23.298Z,4.40
2017-12-25T08:07:50.603Z,4.10
2017-12-25T08:10:17.966Z,3.33
2017-12-25T08:12:45.275Z,4.20
2017-12-25T08:15:13.058Z,4.37
2017-12-25T08:17:40.471Z,3.90
2017-12-25T08:20:07.843Z,4.10
2017-12-25T08:22:35.158Z,4.70
2017-12-25T08:25:02.758Z,3.10
2017-12-25T08:27:30.099Z,3.87
2017-12-25T08:29:57.494Z,4.33
2017-12-25T08:32:25.343Z,4.90
2017-12-25T08:34:53.912Z,3.60
2017-12-25T08:37:21.334Z,5.27
2017-12-25T08:39:48.807Z,4.40
2017-12-25T08:42:16.712Z,4.50
2017-12-25T08:44:44.241Z,3.50
2017-12-25T08:47:11.801Z,3.73
2017-12-25T08:49:39.604Z,4.10
2017-12-25T08:52:06.933Z,3.10
2017-12-25T08:54:34.246Z,2.93
2017-12-25T08:57:02.123Z,4.10
2017-12-25T08:59:30.041Z,3.50
2017-12-25T09:01:57.967Z,3.77
2017-12-25T09:04:25.606Z,3.20
2017-12-25T09:06:53.243Z,2.90
2017-12-25T09:09:20.943Z,3.47
2017-12-25T09:11:48.626Z,3.00
2017-12-25T09:14:15.974Z,3.83
2017-12-25T09:16:43.836Z,3.10
2017-12-25T09:19:11.654Z,2.57
2017-12-25T09:21:39.354Z,3.93
2017-12-25T09:24:07.711Z,3.63
2017-12-25T09:26:35.091Z,4.20
2017-12-25T09:29:02.824Z,2.77
2017-12-25T09:31:30.122Z,2.60
2017-12-25T09:33:57.464Z,2.37
2017-12-25T09:36:25.098Z,2.40
2017-12-25T09:38:52.438Z,3.23
2017-12-25T09:41:19.871Z,2.60
2017-12-25T09:43:47.569Z,2.97
2017-12-25T09:46:14.862Z,2.73
2017-12-25T09:48:42.214Z,3.27
2017-12-25T09:51:09.582Z,3.47
2017-12-25T09:53:36.963Z,5.00
2017-12-25T09:56:04.646Z,3.47
2017-12-25T09:58:32.030Z,3.93
2017-12-25T10:00:59.680Z,3.80
2017-12-25T10:03:27.315Z,3.03
2017-12-25T10:05:55.046Z,4.50
2017-12-25T10:08:22.747Z,3.90
2017-12-25T10:10:50.050Z,3.80
2017-12-25T10:13:17.396Z,2.60
2017-12-25T10:15:45.271Z,4.77
2017-12-25T10:18:12.783Z,3.80
2017-12-25T10:20:40.143Z,4.47
2017-12-25T10:23:07.870Z,3.43
2017-12-25T10:25:35.747Z,3.83
2017-12-25T10:28:03.523Z,3.20
2017-12-25T10:30:30.883Z,3.37
2017-12-25T10:32:58.203Z,2.80
2017-12-25T10:35:25.561Z,2.60
2017-12-25T10:37:53.037Z,3.23
2017-12-25T10:40:24.997Z,2.47
2017-12-25T10:42:52.718Z,4.00
2017-12-25T10:45:20.342Z,4.17
2017-12-25T10:47:47.719Z,3.60
2017-12-25T10:50:15.363Z,3.90
2017-12-25T10:52:42.794Z,3.23
2017-12-25T10:55:10.225Z,4.07
2017-12-25T10:57:37.570Z,3.80
2017-12-25T11:00:04.878Z,3.20
2017-12-25T11:02:32.211Z,3.00
2017-12-25T11:04:59.598Z,2.90
2017-12-25T11:07:27.242Z,2.80
2017-12-25T11:09:54.554Z,3.97
2017-12-25T11:12:22.516Z,3.03
2017-12-25T11:14:50.824Z,3.43
2017-12-25T11:17:18.528Z,3.60
2017-12-25T11:19:45.989Z,4.67
2017-12-25T11:22:13.614Z,4.00
2017-12-25T11:24:41.337Z,4.80
2017-12-25T11:27:08.686Z,3.77
2017-12-25T11:29:36.198Z,4.90
2017-12-25T11:32:03.552Z,3.60
2017-12-25T11:34:31.247Z,4.13
2017-12-25T11:36:58.646Z,3.27
2017-12-25T11:39:26.327Z,2.50
2017-12-25T11:41:54.007Z,3.87
2017-12-25T11:44:21.366Z,3.50
2017-12-25T11:46:49.002Z,4.53
2017-12-25T11:49:16.358Z,3.70
2017-12-25T11:51:44.130Z,3.80
2017-12-25T11:54:11.429Z,3.97
2017-12-25T11:56:38.933Z,3.23
2017-12-25T11:59:06.613Z,3.23
2017-12-25T12:01:33.910Z,7.20
2017-12-25T12:04:01.259Z,3.50
2017-12-25T12:06:28.943Z,3.23
2017-12-25T12:08:56.374Z,5.97
2017-12-25T12:11:23.986Z,5.23
2017-12-25T12:13:51.681Z,6.63
2017-12-25T12:16:19.340Z,4.07
2017-12-25T12:18:47.010Z,4.37
2017-12-25T12:21:14.630Z,2.97
2017-12-25T12:23:41.937Z,3.93
2017-12-25T12:26:09.609Z,6.30
2017-12-25T12:28:36.918Z,4.30
2017-12-25T12:31:04.238Z,2.63
2017-12-25T12:33:32.093Z,3.40
2017-12-25T12:35:59.398Z,3.67
2017-12-25T12:38:26.738Z,3.77
2017-12-25T12:40:54.075Z,3.50
2017-12-25T12:43:21.693Z,4.07
2017-12-25T12:45:49.337Z,4.13
2017-12-25T12:48:17.029Z,2.83
2017-12-25T12:50:44.725Z,3.60
2017-12-25T12:53:12.394Z,3.60
2017-12-25T12:55:40.686Z,2.93
2017-12-25T12:58:08.050Z,4.57
2017-12-25T13:00:35.825Z,3.73
2017-12-25T13:03:03.130Z,3.63
2017-12-25T13:05:30.926Z,2.77
2017-12-25T13:07:58.281Z,10.20
2017-12-25T13:10:25.638Z,3.90
2017-12-25T13:12:53.303Z,3.70
2017-12-25T13:15:20.933Z,3.40
2017-12-25T13:17:48.748Z,5.40
2017-12-25T13:20:16.363Z,2.27
2017-12-25T13:22:43.718Z,5.73
2017-12-25T13:25:11.414Z,2.33
2017-12-25T13:27:39.046Z,5.13
2017-12-25T13:30:06.398Z,3.33
2017-12-25T13:32:34.059Z,4.30
2017-12-25T13:35:01.827Z,3.80
2017-12-25T13:37:29.638Z,4.50
2017-12-25T13:39:57.254Z,3.73
2017-12-25T13:42:24.557Z,2.37
2017-12-25T13:44:51.898Z,3.07
2017-12-25T13:47:19.240Z,3.10
2017-12-25T13:49:46.603Z,3.10
2017-12-25T13:52:14.222Z,3.70
2017-12-25T13:54:41.540Z,4.10
2017-12-25T13:57:08.897Z,5.67
2017-12-25T13:59:36.215Z,3.43
2017-12-25T14:02:03.867Z,5.50
2017-12-25T14:04:31.224Z,6.73
2017-12-25T14:06:58.530Z,2.40
2017-12-25T14:09:26.268Z,5.53
2017-12-25T14:11:53.977Z,3.60
2017-12-25T14:14:21.706Z,2.80
2017-12-25T14:16:49.019Z,2.40
2017-12-25T14:19:16.390Z,2.97
2017-12-25T14:21:43.816Z,3.47
2017-12-25T14:24:11.479Z,3.63
2017-12-25T14:26:38.839Z,4.00
2017-12-25T14:29:06.139Z,3.00
2017-12-25T14:31:33.977Z,2.70
2017-12-25T14:34:01.639Z,3.50
2017-12-25T14:36:29.310Z,2.60
2017-12-25T14:38:56.924Z,2.97
2017-12-25T14:41:24.642Z,3.33
2017-12-25T14:43:52.278Z,2.13
2017-12-25T14:46:19.574Z,2.90
2017-12-25T14:48:46.907Z,3.80
2017-12-25T14:51:14.517Z,4.83
2017-12-25T14:53:41.974Z,3.57
2017-12-25T14:56:09.640Z,3.67
2017-12-25T14:58:37.348Z,3.80
2017-12-25T15:01:04.991Z,3.80
2017-12-25T15:03:32.696Z,4.83
2017-12-25T15:06:00.038Z,3.90
2017-12-25T15:08:27.374Z,4.00
2017-12-25T15:10:55.000Z,5.00
2017-12-25T15:13:22.691Z,3.07
2017-12-25T15:15:50.355Z,2.20
2017-12-25T15:18:18.011Z,2.50
2017-12-25T15:20:45.379Z,2.60
2017-12-25T15:23:13.234Z,2.20
2017-12-25T15:25:40.599Z,2.53
2017-12-25T15:28:08.655Z,2.73
2017-12-25T15:30:36.494Z,2.33
2017-12-25T15:33:03.843Z,2.97
2017-12-25T15:35:31.230Z,2.83
2017-12-25T15:37:59.071Z,1.90
2017-12-25T15:40:26.410Z,2.67
2017-12-25T15:42:54.330Z,2.30
2017-12-25T15:45:22.172Z,2.33
2017-12-25T15:47:50.179Z,1.70
2017-12-25T15:50:17.686Z,7.60
2017-12-25T15:52:44.998Z,2.67
2017-12-25T15:55:12.662Z,2.53
2017-12-25T15:57:39.972Z,2.50
2017-12-25T16:00:07.479Z,2.13
2017-12-25T16:02:34.898Z,2.33
2017-12-25T16:05:02.538Z,2.43
2017-12-25T16:07:30.254Z,3.03
2017-12-25T16:09:57.613Z,2.10
2017-12-25T16:12:25.433Z,6.67
2017-12-25T16:14:52.748Z,3.83
2017-12-25T16:17:20.067Z,3.60
2017-12-25T16:19:47.734Z,5.10
2017-12-25T16:22:15.368Z,6.70
2017-12-25T16:24:42.695Z,4.40
2017-12-25T16:27:10.394Z,3.43
2017-12-25T16:29:38.098Z,4.57
2017-12-25T16:32:05.395Z,5.80
2017-12-25T16:34:33.083Z,4.63
2017-12-25T16:37:00.759Z,4.33
2017-12-25T16:39:28.375Z,3.13
2017-12-25T16:41:55.725Z,4.80
2017-12-25T16:44:23.523Z,5.20
2017-12-25T16:46:51.242Z,6.23
2017-12-25T16:49:18.815Z,3.80
2017-12-25T16:51:46.190Z,3.40
2017-12-25T16:54:13.516Z,2.77
2017-12-25T16:56:40.863Z,6.23
2017-12-25T16:59:08.527Z,2.90
2017-12-25T17:01:36.211Z,5.07
2017-12-25T17:04:03.564Z,4.27
2017-12-25T17:06:30.862Z,2.50
2017-12-25T17:08:58.183Z,5.67
2017-12-25T17:11:25.890Z,10.33
2017-12-25T17:13:53.285Z,4.23
2017-12-25T17:16:20.599Z,5.07
2017-12-25T17:18:47.971Z,3.47
2017-12-25T17:21:15.274Z,4.00
2017-12-25T17:23:42.910Z,5.27
2017-12-25T17:26:10.271Z,3.90
2017-12-25T17:28:37.803Z,3.57
2017-12-25T17:31:05.687Z,6.57
2017-12-25T17:33:33.047Z,3.30
2017-12-25T17:36:00.377Z,3.00
2017-12-25T17:38:27.856Z,5.70
2017-12-25T17:40:55.191Z,3.90
2017-12-25T17:43:22.894Z,4.20
2017-12-25T17:45:50.550Z,3.80
2017-12-25T17:48:18.255Z,4.10
2017-12-25T17:50:45.566Z,4.27
2017-12-25T17:53:13.228Z,5.83
2017-12-25T17:55:40.897Z,3.50
2017-12-25T17:58:08.359Z,3.40
2017-12-25T18:00:35.988Z,4.40
2017-12-25T18:03:03.386Z,4.50
2017-12-25T18:05:31.016Z,3.73
2017-12-25T18:07:58.411Z,4.07
2017-12-25T18:10:25.745Z,3.50
2017-12-25T18:12:53.250Z,4.70
2017-12-25T18:15:20.982Z,4.50
2017-12-25T18:17:49.098Z,4.53
2017-12-25T18:20:16.763Z,5.30
2017-12-25T18:22:44.123Z,5.20
2017-12-25T18:25:11.634Z,4.07
2017-12-25T18:27:38.967Z,4.07
2017-12-25T18:30:06.662Z,3.73
2017-12-25T18:32:34.041Z,3.47
2017-12-25T18:35:01.746Z,4.37
2017-12-25T18:37:29.376Z,3.50
2017-12-25T18:39:56.811Z,3.77
2017-12-25T18:42:27.593Z,3.40
2017-12-25T18:44:55.272Z,3.13
2017-12-25T18:47:22.887Z,7.80
2017-12-25T18:49:50.570Z,3.93
2017-12-25T18:52:18.252Z,3.80
2017-12-25T18:54:45.596Z,3.80
2017-12-25T18:57:13.300Z,4.77
2017-12-25T18:59:41.120Z,5.03
2017-12-25T19:02:08.449Z,4.90
2017-12-25T19:04:35.886Z,5.13
2017-12-25T19:07:03.603Z,4.60
2017-12-25T19:09:31.142Z,5.07
2017-12-25T19:11:58.493Z,5.23
2017-12-25T19:14:25.848Z,4.90
2017-12-25T19:16:53.258Z,6.40
2017-12-25T19:19:20.609Z,5.73
2017-12-25T19:21:48.016Z,5.10
2017-12-25T19:24:15.325Z,5.80
2017-12-25T19:26:42.734Z,6.60
2017-12-25T19:29:10.083Z,6.10
2017-12-25T19:31:37.400Z,5.50
2017-12-25T19:34:04.931Z,6.00
2017-12-25T19:36:32.397Z,5.30
2017-12-25T19:39:00.167Z,6.97
2017-12-25T19:41:27.471Z,6.47
2017-12-25T19:43:54.839Z,5.77
2017-12-25T19:46:22.578Z,6.60
2017-12-25T19:48:49.946Z,7.37
2017-12-25T19:51:17.658Z,5.63
2017-12-25T19:53:45.062Z,7.10
2017-12-25T19:56:12.398Z,6.50
2017-12-25T19:58:40.141Z,8.00
2017-12-25T20:01:07.867Z,7.30
2017-12-25T20:03:35.551Z,5.57
2017-12-25T20:06:02.879Z,10.50
2017-12-25T20:08:30.628Z,6.80
2017-12-25T20:10:58.015Z,6.70
2017-12-25T20:13:25.398Z,7.00
2017-12-25T20:15:53.071Z,7.20
2017-12-25T20:18:20.386Z,7.70
2017-12-25T20:20:47.758Z,8.70
2017-12-25T20:23:15.059Z,7.07
2017-12-25T20:25:42.497Z,7.60
2017-12-25T20:28:10.197Z,6.50
2017-12-25T20:30:37.814Z,6.70
2017-12-25T20:33:05.383Z,7.30
2017-12-25T20:35:33.120Z,10.07
2017-12-25T20:38:00.811Z,6.87
2017-12-25T20:40:28.508Z,7.43
2017-12-25T20:42:56.799Z,5.53
2017-12-25T20:45:24.403Z,6.10
2017-12-25T20:47:52.130Z,6.60
2017-12-25T20:50:19.484Z,6.13
2017-12-25T20:52:46.794Z,7.27
2017-12-25T20:55:14.159Z,6.70
2017-12-25T20:57:41.530Z,5.97
2017-12-25T21:00:09.148Z,6.43
2017-12-25T21:02:37.009Z,6.70
2017-12-25T21:05:04.690Z,8.73
2017-12-25T21:07:32.146Z,9.57
2017-12-25T21:09:59.467Z,9.30
2017-12-25T21:12:26.806Z,7.13
2017-12-25T21:14:54.222Z,6.37
2017-12-25T21:17:21.953Z,6.57
2017-12-25T21:19:49.359Z,9.50
2017-12-25T21:22:17.051Z,8.37
2017-12-25T21:24:45.330Z,6.67
2017-12-25T21:27:12.642Z,7.43
2017-12-25T21:29:40.130Z,8.80
2017-12-25T21:32:07.862Z,8.30
2017-12-25T21:34:35.563Z,7.63
2017-12-25T21:37:02.908Z,7.93
2017-12-25T21:39:30.325Z,7.37
2017-12-25T21:41:57.671Z,8.53
2017-12-25T21:44:25.003Z,12.23
2017-12-25T21:46:52.357Z,9.73
2017-12-25T21:49:20.036Z,9.30
2017-12-25T21:51:47.395Z,11.17
2017-12-25T21:54:14.773Z,14.47
2017-12-25T21:56:42.631Z,10.13
2017-12-25T21:59:10.395Z,10.30
2017-12-25T22:01:38.158Z,9.40
2017-12-25T22:04:07.562Z,9.83
2017-12-25T22:06:35.274Z,9.93
2017-12-25T22:09:02.616Z,10.20
2017-12-25T22:11:29.965Z,11.70
2017-12-25T22:13:57.331Z,9.87
2017-12-25T22:16:24.659Z,10.23
2017-12-25T22:18:51.979Z,13.03
2017-12-25T22:21:19.428Z,14.23
2017-12-25T22:23:46.911Z,12.50
2017-12-25T22:26:14.587Z,13.97
2017-12-25T22:28:42.222Z,17.63
2017-12-25T22:31:09.529Z,18.27
2017-12-25T22:33:36.882Z,18.50
2017-12-25T22:36:04.201Z,17.57
2017-12-25T22:38:31.935Z,18.47
2017-12-25T22:40:59.330Z,15.13
2017-12-25T22:43:26.973Z,17.87
2017-12-25T22:45:54.662Z,18.67
2017-12-25T22:48:22.278Z,16.13
2017-12-25T22:50:49.614Z,16.87
2017-12-25T22:53:17.058Z,15.50
2017-12-25T22:55:44.789Z,17.43
2017-12-25T22:58:12.414Z,14.80
2017-12-25T23:00:39.763Z,18.80
2017-12-25T23:03:07.192Z,18.10
2017-12-25T23:05:34.598Z,19.63
2017-12-25T23:08:02.297Z,16.83
2017-12-25T23:10:29.606Z,16.77
2017-12-25T23:12:56.918Z,20.70
2017-12-25T23:15:24.652Z,15.80
2017-12-25T23:17:52.309Z,16.43
2017-12-25T23:20:19.822Z,18.10
2017-12-25T23:22:47.221Z,17.40
2017-12-25T23:25:14.615Z,21.03
2017-12-25T23:27:42.042Z,17.93
2017-12-25T23:30:09.514Z,18.30
2017-12-25T23:32:36.827Z,17.63
2017-12-25T23:35:04.497Z,21.63
2017-12-25T23:37:31.906Z,19.53
2017-12-25T23:39:59.759Z,22.80
2017-12-25T23:42:27.074Z,19.20
2017-12-25T23:44:54.423Z,20.70
2017-12-25T23:47:22.218Z,28.40
2017-12-25T23:49:49.542Z,23.33
2017-12-25T23:52:17.230Z,20.03
2017-12-25T23:54:44.563Z,22.80
2017-12-25T23:57:12.259Z,25.10
2017-12-25T23:59:39.571Z,23.23
